createdAt,value
2019-05-02T00:00:34.519Z,999.90
2019-05-02T00:01:34.515Z,999.90
2019-05-02T00:02:34.516Z,999.90
2019-05-02T00:03:35.874Z,999.90
2019-05-02T00:04:35.489Z,999.90
2019-05-02T00:05:34.467Z,999.90
2019-05-02T00:06:38.087Z,999.90
2019-05-02T00:07:35.471Z,999.90
2019-05-02T00:08:34.460Z,999.90
2019-05-02T00:09:34.422Z,999.90
2019-05-02T00:10:34.415Z,999.90
2019-05-02T00:11:34.402Z,999.90
2019-05-02T00:12:34.426Z,999.90
2019-05-02T00:13:34.395Z,999.90
2019-05-02T00:14:34.370Z,999.90
2019-05-02T00:15:38.294Z,999.90
2019-05-02T00:16:34.347Z,999.90
2019-05-02T00:17:34.357Z,999.90
2019-05-02T00:18:37.192Z,999.90
2019-05-02T00:19:34.327Z,999.90
2019-05-02T00:20:34.306Z,999.90
2019-05-02T00:21:38.171Z,999.90
2019-05-02T00:22:35.298Z,999.90
2019-05-02T00:23:34.272Z,999.90
2019-05-02T00:24:39.372Z,999.90
2019-05-02T00:25:35.271Z,999.90
2019-05-02T00:26:34.247Z,999.90
2019-05-02T00:27:37.778Z,999.90
2019-05-02T00:28:34.218Z,999.90
2019-05-02T00:29:34.207Z,999.90
2019-05-02T00:30:34.749Z,999.90
2019-05-02T00:31:34.207Z,999.90
2019-05-02T00:32:34.191Z,999.90
2019-05-02T00:33:35.764Z,999.90
2019-05-02T00:34:34.155Z,999.90
2019-05-02T00:35:34.143Z,999.90
2019-05-02T00:36:34.135Z,999.90
2019-05-02T00:37:34.154Z,999.90
2019-05-02T00:38:38.543Z,999.90
2019-05-02T00:39:35.101Z,999.90
2019-05-02T00:40:34.088Z,999.90
2019-05-02T00:41:38.389Z,999.90
2019-05-02T00:42:35.088Z,999.90
2019-05-02T00:43:36.235Z,999.90
2019-05-02T00:44:34.047Z,999.90
2019-05-02T00:45:34.036Z,999.90
2019-05-02T00:46:34.922Z,999.90
2019-05-02T00:47:34.016Z,999.90
2019-05-02T00:48:34.019Z,999.90
2019-05-02T00:49:35.422Z,999.90
2019-05-02T00:50:33.985Z,999.90
2019-05-02T00:51:33.973Z,999.90
2019-05-02T00:52:36.675Z,999.90
2019-05-02T00:53:33.965Z,999.90
2019-05-02T00:54:33.941Z,999.90
2019-05-02T00:55:35.538Z,999.90
2019-05-02T00:56:33.916Z,999.90
2019-05-02T00:57:34.084Z,999.90
2019-05-02T00:58:33.913Z,999.90
2019-05-02T00:59:37.834Z,999.90
2019-05-02T01:00:34.874Z,999.90
2019-05-02T01:01:33.874Z,999.90
2019-05-02T01:02:35.949Z,999.90
2019-05-02T01:03:34.858Z,999.90
2019-05-02T01:04:33.831Z,999.90
2019-05-02T01:05:38.347Z,999.90
2019-05-02T01:06:34.806Z,999.90
2019-05-02T01:07:33.814Z,999.90
2019-05-02T01:08:35.647Z,999.90
2019-05-02T01:09:33.779Z,999.90
2019-05-02T01:10:33.766Z,999.90
2019-05-02T01:11:33.754Z,999.90
2019-05-02T01:12:33.743Z,999.90
2019-05-02T01:13:33.765Z,999.90
2019-05-02T01:14:33.730Z,999.90
2019-05-02T01:15:33.716Z,999.90
2019-05-02T01:16:33.705Z,999.90
2019-05-02T01:17:33.705Z,999.90
2019-05-02T01:18:37.290Z,999.90
2019-05-02T01:19:33.680Z,999.90
2019-05-02T01:20:33.660Z,999.90
2019-05-02T01:21:34.005Z,999.90
2019-05-02T01:22:33.639Z,999.90
2019-05-02T01:23:33.644Z,999.90
2019-05-02T01:24:34.080Z,999.90
2019-05-02T01:25:34.615Z,999.90
2019-05-02T01:26:33.592Z,999.90
2019-05-02T01:27:36.094Z,999.90
2019-05-02T01:28:34.585Z,999.90
2019-05-02T01:29:33.567Z,999.90
2019-05-02T01:30:37.281Z,999.90
2019-05-02T01:31:34.551Z,999.90
2019-05-02T01:32:33.528Z,999.90
2019-05-02T01:33:36.847Z,999.90
2019-05-02T01:34:34.505Z,999.90
2019-05-02T01:35:33.498Z,999.90
2019-05-02T01:36:36.699Z,999.90
2019-05-02T01:37:33.479Z,999.90
2019-05-02T01:38:33.794Z,999.90
2019-05-02T01:39:37.800Z,999.90
2019-05-02T01:40:34.444Z,999.90
2019-05-02T01:41:33.431Z,999.90
2019-05-02T01:42:40.115Z,999.90
2019-05-02T01:43:34.443Z,999.90
2019-05-02T01:44:36.438Z,999.90
2019-05-02T01:45:33.388Z,999.90
2019-05-02T01:46:33.379Z,999.90
2019-05-02T01:47:34.164Z,999.90
2019-05-02T01:48:33.358Z,999.90
2019-05-02T01:49:33.394Z,999.90
2019-05-02T01:50:33.669Z,999.90
2019-05-02T01:51:36.502Z,999.90
2019-05-02T01:52:33.316Z,999.90
2019-05-02T01:53:34.193Z,999.90
2019-05-02T01:54:33.313Z,999.90
2019-05-02T01:55:33.294Z,999.90
2019-05-02T01:56:34.918Z,999.90
2019-05-02T01:57:33.265Z,999.90
2019-05-02T01:58:33.249Z,999.90
2019-05-02T01:59:33.890Z,999.90
2019-05-02T02:00:33.442Z,999.90
2019-05-02T02:01:33.223Z,999.90
2019-05-02T02:02:34.117Z,999.90
2019-05-02T02:03:33.196Z,999.90
2019-05-02T02:04:33.204Z,999.90
2019-05-02T02:05:33.516Z,999.90
2019-05-02T02:06:33.167Z,999.90
2019-05-02T02:07:33.168Z,999.90
2019-05-02T02:08:33.978Z,999.90
2019-05-02T02:09:33.147Z,999.90
2019-05-02T02:10:33.123Z,999.90
2019-05-02T02:11:34.060Z,999.90
2019-05-02T02:12:33.100Z,999.90
2019-05-02T02:13:36.587Z,999.90
2019-05-02T02:14:33.104Z,999.90
2019-05-02T02:15:33.072Z,999.90
2019-05-02T02:16:35.224Z,999.90
2019-05-02T02:17:34.045Z,999.90
2019-05-02T02:18:33.040Z,999.90
2019-05-02T02:19:34.619Z,999.90
2019-05-02T02:20:34.029Z,999.90
2019-05-02T02:21:33.055Z,999.90
2019-05-02T02:22:33.765Z,999.90
2019-05-02T02:23:33.983Z,999.90
2019-05-02T02:24:33.011Z,999.90
2019-05-02T02:25:36.274Z,999.90
2019-05-02T02:26:32.996Z,999.90
2019-05-02T02:27:32.938Z,999.90
2019-05-02T02:28:33.211Z,999.90
2019-05-02T02:29:32.916Z,999.90
2019-05-02T02:30:32.925Z,999.90
2019-05-02T02:31:39.945Z,999.90
2019-05-02T02:32:33.890Z,999.90
2019-05-02T02:33:32.892Z,999.90
2019-05-02T02:34:32.883Z,999.90
2019-05-02T02:35:32.874Z,999.90
2019-05-02T02:36:34.751Z,999.90
2019-05-02T02:37:32.841Z,999.90
2019-05-02T02:38:35.100Z,999.90
2019-05-02T02:39:32.817Z,999.90
2019-05-02T02:40:33.681Z,999.90
2019-05-02T02:41:32.791Z,999.90
2019-05-02T02:42:34.157Z,999.90
2019-05-02T02:43:34.842Z,999.90
2019-05-02T02:44:33.595Z,999.90
2019-05-02T02:45:33.760Z,999.90
2019-05-02T02:46:37.868Z,999.90
2019-05-02T02:47:33.728Z,999.90
2019-05-02T02:48:34.021Z,999.90
2019-05-02T02:49:33.702Z,999.90
2019-05-02T02:50:36.517Z,999.90
2019-05-02T02:51:33.680Z,999.90
2019-05-02T02:52:37.698Z,999.90
2019-05-02T02:53:33.665Z,999.90
2019-05-02T02:54:36.587Z,999.90
2019-05-02T02:55:33.652Z,999.90
2019-05-02T02:56:34.507Z,999.90
2019-05-02T02:57:33.626Z,999.90
2019-05-02T02:58:44.144Z,999.90
2019-05-02T02:59:33.597Z,999.90
2019-05-02T03:00:32.642Z,999.90
2019-05-02T03:01:32.574Z,999.90
2019-05-02T03:02:32.572Z,999.90
2019-05-02T03:03:35.200Z,999.90
2019-05-02T03:04:32.544Z,999.90
2019-05-02T03:05:32.549Z,999.90
2019-05-02T03:06:32.524Z,999.90
2019-05-02T03:07:32.515Z,999.90
2019-05-02T03:08:32.521Z,999.90
2019-05-02T03:09:32.490Z,999.90
2019-05-02T03:10:32.502Z,999.90
2019-05-02T03:11:32.472Z,999.90
2019-05-02T03:12:36.215Z,999.90
2019-05-02T03:13:50.448Z,999.90
2019-05-02T03:14:33.443Z,999.90
2019-05-02T03:15:32.442Z,999.90
2019-05-02T03:16:32.417Z,999.90
2019-05-02T03:17:32.404Z,999.90
2019-05-02T03:18:39.787Z,999.90
2019-05-02T03:19:33.381Z,999.90
2019-05-02T03:20:39.854Z,999.90
2019-05-02T03:21:33.365Z,999.90
2019-05-02T03:22:34.677Z,999.90
2019-05-02T03:23:33.343Z,999.90
2019-05-02T03:24:36.791Z,999.90
2019-05-02T03:25:49.995Z,999.90
2019-05-02T03:26:33.320Z,999.90
2019-05-02T03:27:37.064Z,999.90
2019-05-02T03:28:33.284Z,999.90
2019-05-02T03:29:40.890Z,999.90
2019-05-02T03:30:37.313Z,999.90
2019-05-02T03:31:32.284Z,999.90
2019-05-02T03:32:35.690Z,999.90
2019-05-02T03:33:51.437Z,999.90
2019-05-02T03:34:47.215Z,999.90
2019-05-02T03:35:42.562Z,999.90
2019-05-02T03:36:36.392Z,999.90
2019-05-02T03:37:32.193Z,999.90
2019-05-02T03:38:34.972Z,999.90
2019-05-02T03:39:32.171Z,999.90
2019-05-02T03:40:38.901Z,999.90
2019-05-02T03:41:33.166Z,999.90
2019-05-02T03:42:43.896Z,999.90
2019-05-02T03:43:33.127Z,999.90
2019-05-02T03:44:32.265Z,999.90
2019-05-02T03:45:39.988Z,999.90
2019-05-02T03:46:33.110Z,999.90
2019-05-02T03:47:36.896Z,999.90
2019-05-02T03:48:33.072Z,999.90
2019-05-02T03:49:32.065Z,999.90
2019-05-02T03:50:35.082Z,999.90
2019-05-02T03:51:32.066Z,999.90
2019-05-02T03:52:36.557Z,999.90
2019-05-02T03:53:33.018Z,999.90
2019-05-02T03:54:32.010Z,999.90
2019-05-02T03:55:34.003Z,999.90
2019-05-02T03:56:32.020Z,999.90
2019-05-02T03:57:35.652Z,999.90
2019-05-02T03:58:31.965Z,999.90
2019-05-02T03:59:38.498Z,999.90
2019-05-02T04:00:32.949Z,999.90
2019-05-02T04:01:34.677Z,999.90
2019-05-02T04:02:32.938Z,999.90
2019-05-02T04:03:34.035Z,999.90
2019-05-02T04:04:32.897Z,999.90
2019-05-02T04:05:33.805Z,999.90
2019-05-02T04:06:32.894Z,999.90
2019-05-02T04:07:39.640Z,999.90
2019-05-02T04:08:32.863Z,999.90
2019-05-02T04:09:37.946Z,999.90
2019-05-02T04:10:32.834Z,999.90
2019-05-02T04:11:38.030Z,999.90
2019-05-02T04:12:33.227Z,999.90
2019-05-02T04:13:36.314Z,999.90
2019-05-02T04:14:37.782Z,999.90
2019-05-02T04:15:35.249Z,999.90
2019-05-02T04:16:31.787Z,999.90
2019-05-02T04:17:35.364Z,999.90
2019-05-02T04:18:32.747Z,999.90
2019-05-02T04:19:34.960Z,999.90
2019-05-02T04:20:31.737Z,999.90
2019-05-02T04:21:31.736Z,999.90
2019-05-02T04:22:31.712Z,999.90
2019-05-02T04:23:31.694Z,999.90
2019-05-02T04:24:31.685Z,999.90
2019-05-02T04:25:34.079Z,999.90
2019-05-02T04:26:31.676Z,999.90
2019-05-02T04:27:34.049Z,999.90
2019-05-02T04:28:31.692Z,999.90
2019-05-02T04:29:33.080Z,999.90
2019-05-02T04:30:31.631Z,999.90
2019-05-02T04:31:33.577Z,999.90
2019-05-02T04:32:31.597Z,999.90
2019-05-02T04:33:35.043Z,999.90
2019-05-02T04:34:31.576Z,999.90
2019-05-02T04:35:34.879Z,999.90
2019-05-02T04:36:31.556Z,999.90
2019-05-02T04:37:34.212Z,999.90
2019-05-02T04:38:44.608Z,999.90
2019-05-02T04:39:32.536Z,999.90
2019-05-02T04:40:40.424Z,999.90
2019-05-02T04:41:34.413Z,999.90
2019-05-02T04:42:31.507Z,999.90
2019-05-02T04:43:31.479Z,999.90
2019-05-02T04:44:41.146Z,999.90
2019-05-02T04:45:47.307Z,999.90
2019-05-02T04:46:32.450Z,999.90
2019-05-02T04:47:31.453Z,999.90
2019-05-02T04:48:34.646Z,999.90
2019-05-02T04:49:35.764Z,999.90
2019-05-02T04:50:31.406Z,999.90
2019-05-02T04:51:32.296Z,999.90
2019-05-02T04:52:31.397Z,999.90
2019-05-02T04:53:36.647Z,999.90
2019-05-02T04:54:32.836Z,999.90
2019-05-02T04:55:33.464Z,999.90
2019-05-02T04:56:31.340Z,999.90
2019-05-02T04:57:37.099Z,999.90
2019-05-02T04:58:36.504Z,999.90
2019-05-02T04:59:33.240Z,999.90
2019-05-02T05:00:31.299Z,999.90
2019-05-02T05:01:41.900Z,999.90
2019-05-02T05:02:36.747Z,999.90
2019-05-02T05:03:32.268Z,999.90
2019-05-02T05:04:33.266Z,999.90
2019-05-02T05:05:32.244Z,999.90
2019-05-02T05:06:31.232Z,999.90
2019-05-02T05:07:43.512Z,999.90
2019-05-02T05:08:32.208Z,999.90
2019-05-02T05:09:31.211Z,999.90
2019-05-02T05:10:40.348Z,999.90
2019-05-02T05:11:31.178Z,999.90
2019-05-02T05:12:32.481Z,999.90
2019-05-02T05:13:32.155Z,999.90
2019-05-02T05:14:38.068Z,999.90
2019-05-02T05:15:40.271Z,999.90
2019-05-02T05:16:32.125Z,999.90
2019-05-02T05:17:34.049Z,999.90
2019-05-02T05:18:31.102Z,999.90
2019-05-02T05:19:32.811Z,999.90
2019-05-02T05:20:31.081Z,999.90
2019-05-02T05:21:31.103Z,999.90
2019-05-02T05:22:31.079Z,999.90
2019-05-02T05:23:31.049Z,999.90
2019-05-02T05:24:32.856Z,999.90
2019-05-02T05:25:32.025Z,999.90
2019-05-02T05:26:33.759Z,999.90
2019-05-02T05:27:32.025Z,999.90
2019-05-02T05:28:35.065Z,999.90
2019-05-02T05:29:32.001Z,999.90
2019-05-02T05:30:30.972Z,999.90
2019-05-02T05:31:30.972Z,999.90
2019-05-02T05:32:30.954Z,999.90
2019-05-02T05:33:30.959Z,999.90
2019-05-02T05:34:32.803Z,999.90
2019-05-02T05:35:30.936Z,999.90
2019-05-02T05:36:33.913Z,999.90
2019-05-02T05:37:30.904Z,999.90
2019-05-02T05:38:33.362Z,999.90
2019-05-02T05:39:30.878Z,999.90
2019-05-02T05:40:32.289Z,999.90
2019-05-02T05:41:30.865Z,999.90
2019-05-02T05:42:33.283Z,999.90
2019-05-02T05:43:30.852Z,999.90
2019-05-02T05:44:32.622Z,999.90
2019-05-02T05:45:30.812Z,999.90
2019-05-02T05:46:33.319Z,999.90
2019-05-02T05:47:31.788Z,999.90
2019-05-02T05:48:32.229Z,999.90
2019-05-02T05:49:31.767Z,999.90
2019-05-02T05:50:32.296Z,999.90
2019-05-02T05:51:31.747Z,999.90
2019-05-02T05:52:33.031Z,999.90
2019-05-02T05:53:31.744Z,999.90
2019-05-02T05:54:33.038Z,999.90
2019-05-02T05:55:31.780Z,999.90
2019-05-02T05:56:32.434Z,999.90
2019-05-02T05:57:31.681Z,999.90
2019-05-02T05:58:30.703Z,999.90
2019-05-02T05:59:32.206Z,999.90
2019-05-02T06:00:30.663Z,998.20
2019-05-02T06:01:34.026Z,996.10
2019-05-02T06:02:31.630Z,980.20
2019-05-02T06:03:34.044Z,991.30
2019-05-02T06:04:33.292Z,980.70
2019-05-02T06:05:33.110Z,979.10
2019-05-02T06:06:31.583Z,999.90
2019-05-02T06:07:33.580Z,999.90
2019-05-02T06:08:31.584Z,995.40
2019-05-02T06:09:31.023Z,999.90
2019-05-02T06:10:30.543Z,999.90
2019-05-02T06:11:30.531Z,999.90
2019-05-02T06:12:35.147Z,999.90
2019-05-02T06:13:31.545Z,999.90
2019-05-02T06:14:30.523Z,999.90
2019-05-02T06:15:33.811Z,999.90
2019-05-02T06:16:31.474Z,999.90
2019-05-02T06:17:30.551Z,999.90
2019-05-02T06:18:30.486Z,999.90
2019-05-02T06:19:30.443Z,999.90
2019-05-02T06:20:31.771Z,999.90
2019-05-02T06:21:30.421Z,999.90
2019-05-02T06:22:30.413Z,999.90
2019-05-02T06:23:31.106Z,999.90
2019-05-02T06:24:33.871Z,999.90
2019-05-02T06:25:34.223Z,999.90
2019-05-02T06:26:31.371Z,999.90
2019-05-02T06:27:30.584Z,999.90
2019-05-02T06:28:30.360Z,999.90
2019-05-02T06:29:30.354Z,999.90
2019-05-02T06:30:31.040Z,999.90
2019-05-02T06:31:30.313Z,999.90
2019-05-02T06:32:30.304Z,999.90
2019-05-02T06:33:30.707Z,999.90
2019-05-02T06:34:30.280Z,999.90
2019-05-02T06:35:30.327Z,999.90
2019-05-02T06:36:32.008Z,999.90
2019-05-02T06:37:31.262Z,999.90
2019-05-02T06:38:30.238Z,999.90
2019-05-02T06:39:31.977Z,991.30
2019-05-02T06:40:30.217Z,999.90
2019-05-02T06:41:30.204Z,999.90
2019-05-02T06:42:32.703Z,981.90
2019-05-02T06:43:30.185Z,993.00
2019-05-02T06:44:30.194Z,999.90
2019-05-02T06:45:32.197Z,969.20
2019-05-02T06:46:31.152Z,963.40
2019-05-02T06:47:30.138Z,964.70
2019-05-02T06:48:30.138Z,992.80
2019-05-02T06:49:30.137Z,999.90
2019-05-02T06:50:33.431Z,981.50
2019-05-02T06:51:31.094Z,991.60
2019-05-02T06:52:32.833Z,985.40
2019-05-02T06:53:30.084Z,979.30
2019-05-02T06:54:30.095Z,972.20
2019-05-02T06:55:36.198Z,955.90
2019-05-02T06:56:31.046Z,925.70
2019-05-02T06:57:30.048Z,951.10
2019-05-02T06:58:30.020Z,929.10
2019-05-02T06:59:30.024Z,942.00
2019-05-02T07:00:38.420Z,942.70
2019-05-02T07:01:30.989Z,941.10
2019-05-02T07:02:33.513Z,970.30
2019-05-02T07:03:30.968Z,960.50
2019-05-02T07:04:29.973Z,957.70
2019-05-02T07:05:29.944Z,967.60
2019-05-02T07:06:30.255Z,970.90
2019-05-02T07:07:31.998Z,981.10
2019-05-02T07:08:31.036Z,995.60
2019-05-02T07:09:40.523Z,999.20
2019-05-02T07:10:43.907Z,994.70
2019-05-02T07:11:33.226Z,996.20
2019-05-02T07:12:30.872Z,992.80
2019-05-02T07:13:29.858Z,982.10
2019-05-02T07:14:29.862Z,973.20
2019-05-02T07:15:33.573Z,990.10
2019-05-02T07:16:38.626Z,986.90
2019-05-02T07:17:32.045Z,986.50
2019-05-02T07:18:29.807Z,986.60
2019-05-02T07:19:29.812Z,995.20
2019-05-02T07:20:29.782Z,999.90
2019-05-02T07:21:29.772Z,999.90
2019-05-02T07:22:33.084Z,999.90
2019-05-02T07:23:30.776Z,991.70
2019-05-02T07:24:30.721Z,999.90
2019-05-02T07:25:29.727Z,999.90
2019-05-02T07:26:29.719Z,999.20
2019-05-02T07:27:33.779Z,999.90
2019-05-02T07:28:30.695Z,999.90
2019-05-02T07:29:29.710Z,998.70
2019-05-02T07:30:30.071Z,999.90
2019-05-02T07:31:29.662Z,999.90
2019-05-02T07:32:29.652Z,999.90
2019-05-02T07:33:32.382Z,999.90
2019-05-02T07:34:30.651Z,999.90
2019-05-02T07:35:29.624Z,999.90
2019-05-02T07:36:31.270Z,999.90
2019-05-02T07:37:30.606Z,999.90
2019-05-02T07:38:29.796Z,999.90
2019-05-02T07:39:29.576Z,999.90
2019-05-02T07:40:29.582Z,999.90
2019-05-02T07:41:30.306Z,999.90
2019-05-02T07:42:29.563Z,999.90
2019-05-02T07:43:29.535Z,999.90
2019-05-02T07:44:32.705Z,999.90
2019-05-02T07:45:29.528Z,999.90
2019-05-02T07:46:29.500Z,999.90
2019-05-02T07:47:29.491Z,999.90
2019-05-02T07:48:29.486Z,999.90
2019-05-02T07:49:32.430Z,999.90
2019-05-02T07:50:29.471Z,999.90
2019-05-02T07:51:29.446Z,999.90
2019-05-02T07:52:33.609Z,999.90
2019-05-02T07:53:29.424Z,999.90
2019-05-02T07:54:29.414Z,999.90
2019-05-02T07:55:30.673Z,999.90
2019-05-02T07:56:30.390Z,999.90
2019-05-02T07:57:30.583Z,999.90
2019-05-02T07:58:29.368Z,999.90
2019-05-02T07:59:29.538Z,999.90
2019-05-02T08:00:32.189Z,999.90
2019-05-02T08:01:30.360Z,999.90
2019-05-02T08:02:29.334Z,999.90
2019-05-02T08:03:33.450Z,999.90
2019-05-02T08:04:30.305Z,999.90
2019-05-02T08:05:29.314Z,999.90
2019-05-02T08:06:35.391Z,999.90
2019-05-02T08:07:34.340Z,999.90
2019-05-02T08:08:29.865Z,999.90
2019-05-02T08:09:29.276Z,999.90
2019-05-02T08:10:29.260Z,999.90
2019-05-02T08:11:32.289Z,999.90
2019-05-02T08:12:30.219Z,999.90
2019-05-02T08:13:31.443Z,999.90
2019-05-02T08:14:34.235Z,999.90
2019-05-02T08:15:30.222Z,999.90
2019-05-02T08:16:29.202Z,999.90
2019-05-02T08:17:29.166Z,999.90
2019-05-02T08:18:30.444Z,999.90
2019-05-02T08:19:29.178Z,999.90
2019-05-02T08:20:29.244Z,999.90
2019-05-02T08:21:32.477Z,999.90
2019-05-02T08:22:29.143Z,999.90
2019-05-02T08:23:29.145Z,999.90
2019-05-02T08:24:33.198Z,999.90
2019-05-02T08:25:30.171Z,999.90
2019-05-02T08:26:29.100Z,999.90
2019-05-02T08:27:34.049Z,999.90
2019-05-02T08:28:30.799Z,999.90
2019-05-02T08:29:30.743Z,999.90
2019-05-02T08:30:29.090Z,999.90
2019-05-02T08:31:30.199Z,999.90
2019-05-02T08:32:29.076Z,999.90
2019-05-02T08:33:34.396Z,999.90
2019-05-02T08:34:30.020Z,999.90
2019-05-02T08:35:29.063Z,999.90
2019-05-02T08:36:29.015Z,999.90
2019-05-02T08:37:28.946Z,999.90
2019-05-02T08:38:28.941Z,999.90
2019-05-02T08:39:33.347Z,999.90
2019-05-02T08:40:28.913Z,999.90
2019-05-02T08:41:29.048Z,999.90
2019-05-02T08:42:32.505Z,999.90
2019-05-02T08:43:29.734Z,999.90
2019-05-02T08:44:28.910Z,999.90
2019-05-02T08:45:33.102Z,986.20
2019-05-02T08:46:29.866Z,999.90
2019-05-02T08:47:30.499Z,999.90
2019-05-02T08:48:28.827Z,999.80
2019-05-02T08:49:28.880Z,994.60
2019-05-02T08:50:31.911Z,988.90
2019-05-02T08:51:28.964Z,987.70
2019-05-02T08:52:28.815Z,990.70
2019-05-02T08:53:28.776Z,987.10
2019-05-02T08:54:32.789Z,986.10
2019-05-02T08:55:31.823Z,999.90
2019-05-02T08:56:29.907Z,999.90
2019-05-02T08:57:30.042Z,999.90
2019-05-02T08:58:30.256Z,999.90
2019-05-02T08:59:28.732Z,999.90
2019-05-02T09:00:32.211Z,999.90
2019-05-02T09:01:35.352Z,999.20
2019-05-02T09:02:40.849Z,999.90
2019-05-02T09:03:38.877Z,999.90
2019-05-02T09:04:30.732Z,999.90
2019-05-02T09:05:28.691Z,999.90
2019-05-02T09:06:28.793Z,998.30
2019-05-02T09:07:31.789Z,999.90
2019-05-02T09:08:29.654Z,999.90
2019-05-02T09:09:29.571Z,999.90
2019-05-02T09:10:30.282Z,994.30
2019-05-02T09:11:28.679Z,999.90
2019-05-02T09:12:28.595Z,999.40
2019-05-02T09:13:29.441Z,999.90
2019-05-02T09:14:29.258Z,996.40
2019-05-02T09:15:28.535Z,990.00
2019-05-02T09:16:30.292Z,999.90
2019-05-02T09:17:37.674Z,992.50
2019-05-02T09:18:35.014Z,992.30
2019-05-02T09:19:34.077Z,998.40
2019-05-02T09:20:29.512Z,992.70
2019-05-02T09:21:34.249Z,994.70
2019-05-02T09:22:29.497Z,971.40
2019-05-02T09:23:33.118Z,985.00
2019-05-02T09:24:32.573Z,987.40
2019-05-02T09:25:28.470Z,977.30
2019-05-02T09:26:35.995Z,981.10
2019-05-02T09:27:29.403Z,982.30
2019-05-02T09:28:28.451Z,990.40
2019-05-02T09:29:28.449Z,983.50
2019-05-02T09:30:29.295Z,990.20
2019-05-02T09:31:28.520Z,981.40
2019-05-02T09:32:28.370Z,977.40
2019-05-02T09:33:28.360Z,978.30
2019-05-02T09:34:28.365Z,979.90
2019-05-02T09:35:28.337Z,969.50
2019-05-02T09:36:28.310Z,979.40
2019-05-02T09:37:28.367Z,965.80
2019-05-02T09:38:28.336Z,965.70
2019-05-02T09:39:32.633Z,955.30
2019-05-02T09:40:29.272Z,944.20
2019-05-02T09:41:32.416Z,954.40
2019-05-02T09:42:29.372Z,946.80
2019-05-02T09:43:33.909Z,969.30
2019-05-02T09:44:29.750Z,932.90
2019-05-02T09:45:33.486Z,947.60
2019-05-02T09:46:29.234Z,967.60
2019-05-02T09:47:33.174Z,970.30
2019-05-02T09:48:29.225Z,927.70
2019-05-02T09:49:29.811Z,925.40
2019-05-02T09:50:31.365Z,928.20
2019-05-02T09:51:29.740Z,950.30
2019-05-02T09:52:34.044Z,951.00
2019-05-02T09:53:29.112Z,948.60
2019-05-02T09:54:28.146Z,951.90
2019-05-02T09:55:28.157Z,936.30
2019-05-02T09:56:28.157Z,946.10
2019-05-02T09:57:29.761Z,940.90
2019-05-02T09:58:28.074Z,957.20
2019-05-02T09:59:30.400Z,972.10
2019-05-02T10:00:32.296Z,949.70
2019-05-02T10:01:29.081Z,900.00
2019-05-02T10:02:28.359Z,924.00
2019-05-02T10:03:28.084Z,923.70
2019-05-02T10:04:28.072Z,925.00
2019-05-02T10:05:28.060Z,939.40
2019-05-02T10:06:31.370Z,917.40
2019-05-02T10:07:27.994Z,921.60
2019-05-02T10:08:27.983Z,917.90
2019-05-02T10:09:28.818Z,898.20
2019-05-02T10:10:27.975Z,885.20
2019-05-02T10:11:28.002Z,864.70
2019-05-02T10:12:28.017Z,870.20
2019-05-02T10:13:27.934Z,884.70
2019-05-02T10:14:27.945Z,909.50
2019-05-02T10:15:28.798Z,892.70
2019-05-02T10:16:27.899Z,897.20
2019-05-02T10:17:27.935Z,890.20
2019-05-02T10:18:30.226Z,901.90
2019-05-02T10:19:27.894Z,910.20
2019-05-02T10:20:31.807Z,864.90
2019-05-02T10:21:28.865Z,869.10
2019-05-02T10:22:32.308Z,830.20
2019-05-02T10:23:31.925Z,858.90
2019-05-02T10:24:28.771Z,869.70
2019-05-02T10:25:32.802Z,885.70
2019-05-02T10:26:28.772Z,888.00
2019-05-02T10:27:28.770Z,876.20
2019-05-02T10:28:27.853Z,879.00
2019-05-02T10:29:29.748Z,891.80
2019-05-02T10:30:27.740Z,838.90
2019-05-02T10:31:32.512Z,822.60
2019-05-02T10:32:28.750Z,867.00
2019-05-02T10:33:32.220Z,835.90
2019-05-02T10:34:28.221Z,861.70
2019-05-02T10:35:36.523Z,859.30
2019-05-02T10:36:28.735Z,869.00
2019-05-02T10:37:32.358Z,873.50
2019-05-02T10:38:28.824Z,870.50
2019-05-02T10:39:28.523Z,880.20
2019-05-02T10:40:28.668Z,908.60
2019-05-02T10:41:33.544Z,903.70
2019-05-02T10:42:28.611Z,899.60
2019-05-02T10:43:27.690Z,919.20
2019-05-02T10:44:32.725Z,922.60
2019-05-02T10:45:28.608Z,928.20
2019-05-02T10:46:32.060Z,920.40
2019-05-02T10:47:28.573Z,920.20
2019-05-02T10:48:28.864Z,900.10
2019-05-02T10:49:27.530Z,905.20
2019-05-02T10:50:27.557Z,892.90
2019-05-02T10:51:27.527Z,893.60
2019-05-02T10:52:29.976Z,913.80
2019-05-02T10:53:28.314Z,898.60
2019-05-02T10:54:27.900Z,902.20
2019-05-02T10:55:28.455Z,873.20
2019-05-02T10:56:28.221Z,854.40
2019-05-02T10:57:29.309Z,818.80
2019-05-02T10:58:31.916Z,820.40
2019-05-02T10:59:28.455Z,807.70
2019-05-02T11:00:27.440Z,794.80
2019-05-02T11:01:27.415Z,794.00
2019-05-02T11:02:27.423Z,789.90
2019-05-02T11:03:27.444Z,775.70
2019-05-02T11:04:29.269Z,785.20
2019-05-02T11:05:27.401Z,742.00
2019-05-02T11:06:27.326Z,781.70
2019-05-02T11:07:27.351Z,776.60
2019-05-02T11:08:27.415Z,780.10
2019-05-02T11:09:28.301Z,785.80
2019-05-02T11:10:27.334Z,765.50
2019-05-02T11:11:27.348Z,771.30
2019-05-02T11:12:40.272Z,766.80
2019-05-02T11:13:28.333Z,780.20
2019-05-02T11:14:27.261Z,767.90
2019-05-02T11:15:27.275Z,778.30
2019-05-02T11:16:27.249Z,762.20
2019-05-02T11:17:27.239Z,774.20
2019-05-02T11:18:40.283Z,774.50
2019-05-02T11:19:27.303Z,762.90
2019-05-02T11:20:27.192Z,736.30
2019-05-02T11:21:27.802Z,719.50
2019-05-02T11:22:28.147Z,714.10
2019-05-02T11:23:27.212Z,730.10
2019-05-02T11:24:27.295Z,686.00
2019-05-02T11:25:27.185Z,714.80
2019-05-02T11:26:28.184Z,693.90
2019-05-02T11:27:27.146Z,698.10
2019-05-02T11:28:27.112Z,714.60
2019-05-02T11:29:27.217Z,721.50
2019-05-02T11:30:27.085Z,714.50
2019-05-02T11:31:27.790Z,694.40
2019-05-02T11:32:27.109Z,694.20
2019-05-02T11:33:27.117Z,720.30
2019-05-02T11:34:27.791Z,699.30
2019-05-02T11:35:27.019Z,721.90
2019-05-02T11:36:27.790Z,726.40
2019-05-02T11:37:28.060Z,688.50
2019-05-02T11:38:27.561Z,721.80
2019-05-02T11:39:37.336Z,703.40
2019-05-02T11:40:28.029Z,737.60
2019-05-02T11:41:27.031Z,705.30
2019-05-02T11:42:27.418Z,709.30
2019-05-02T11:43:26.948Z,741.60
2019-05-02T11:44:26.931Z,701.90
2019-05-02T11:45:26.917Z,725.70
2019-05-02T11:46:26.950Z,678.10
2019-05-02T11:47:27.785Z,568.70
2019-05-02T11:48:26.916Z,543.60
2019-05-02T11:49:26.935Z,687.40
2019-05-02T11:50:31.973Z,731.40
2019-05-02T11:51:28.814Z,762.30
2019-05-02T11:52:27.421Z,512.60
2019-05-02T11:53:29.411Z,539.80
2019-05-02T11:54:27.806Z,634.00
2019-05-02T11:55:28.952Z,551.40
2019-05-02T11:56:26.777Z,614.30
2019-05-02T11:57:28.916Z,564.10
2019-05-02T11:58:26.803Z,558.20
2019-05-02T11:59:28.218Z,471.40
2019-05-02T12:00:26.800Z,498.40
2019-05-02T12:01:35.768Z,492.70
2019-05-02T12:02:27.768Z,479.80
2019-05-02T12:03:28.213Z,499.90
2019-05-02T12:04:26.705Z,508.20
2019-05-02T12:05:33.712Z,530.70
2019-05-02T12:06:28.288Z,551.90
2019-05-02T12:07:26.730Z,561.30
2019-05-02T12:08:26.697Z,562.60
2019-05-02T12:09:26.636Z,558.30
2019-05-02T12:10:27.908Z,534.90
2019-05-02T12:11:26.650Z,516.60
2019-05-02T12:12:27.228Z,512.40
2019-05-02T12:13:26.650Z,542.40
2019-05-02T12:14:27.414Z,519.70
2019-05-02T12:15:27.668Z,489.70
2019-05-02T12:16:26.626Z,471.70
2019-05-02T12:17:26.611Z,474.00
2019-05-02T12:18:26.598Z,480.80
2019-05-02T12:19:26.595Z,498.10
2019-05-02T12:20:28.628Z,500.40
2019-05-02T12:21:27.553Z,528.20
2019-05-02T12:22:28.318Z,505.20
2019-05-02T12:23:26.555Z,511.10
2019-05-02T12:24:26.558Z,504.50
2019-05-02T12:25:26.600Z,480.60
2019-05-02T12:26:26.457Z,516.30
2019-05-02T12:27:26.438Z,543.30
2019-05-02T12:28:26.430Z,516.10